createdAt,value
2023-04-26T00:00:30.944Z,2.24
2023-04-26T00:03:00.241Z,2.03
2023-04-26T00:05:27.349Z,1.72
2023-04-26T00:07:54.520Z,2.16
2023-04-26T00:10:21.330Z,2.10
2023-04-26T00:12:47.966Z,2.32
2023-04-26T00:15:14.945Z,1.15
2023-04-26T00:17:43.101Z,1.94
2023-04-26T00:20:13.725Z,1.77
2023-04-26T00:22:40.910Z,1.72
2023-04-26T00:25:07.839Z,1.62
2023-04-26T00:27:35.200Z,1.58
2023-04-26T00:30:01.739Z,1.78
2023-04-26T00:32:28.489Z,1.87
2023-04-26T00:34:55.406Z,1.80
2023-04-26T00:37:24.084Z,1.62
2023-04-26T00:39:50.873Z,1.80
2023-04-26T00:42:19.651Z,1.83
2023-04-26T00:44:46.369Z,2.00
2023-04-26T00:47:14.529Z,1.96
2023-04-26T00:49:41.458Z,1.70
2023-04-26T00:52:08.205Z,1.58
2023-04-26T00:54:35.351Z,1.88
2023-04-26T00:57:02.642Z,1.83
2023-04-26T00:59:30.646Z,1.69
2023-04-26T01:01:58.516Z,1.37
2023-04-26T01:04:27.420Z,1.47
2023-04-26T01:06:56.779Z,1.61
2023-04-26T01:09:23.300Z,1.36
2023-04-26T01:11:51.732Z,0.96
2023-04-26T01:14:18.496Z,1.47
2023-04-26T01:16:47.013Z,1.19
2023-04-26T01:19:15.290Z,1.42
2023-04-26T01:21:43.525Z,1.46
2023-04-26T01:24:13.418Z,1.27
2023-04-26T01:26:46.636Z,1.31
2023-04-26T01:29:17.041Z,1.03
2023-04-26T01:31:46.938Z,1.10
2023-04-26T01:34:14.300Z,1.17
2023-04-26T01:36:41.106Z,1.23
2023-04-26T01:39:10.474Z,0.98
2023-04-26T01:41:37.335Z,0.72
2023-04-26T01:44:04.447Z,0.83
2023-04-26T01:46:31.359Z,0.67
2023-04-26T01:49:00.244Z,0.75
2023-04-26T01:51:27.174Z,0.88
2023-04-26T01:53:53.762Z,0.79
2023-04-26T01:56:20.848Z,0.94
2023-04-26T01:58:48.244Z,0.76
2023-04-26T02:01:14.844Z,-0.13
2023-04-26T02:03:45.004Z,0.73
2023-04-26T02:06:12.644Z,0.94
2023-04-26T02:08:39.578Z,0.29
2023-04-26T02:11:07.062Z,0.60
2023-04-26T02:13:35.901Z,-0.01
2023-04-26T02:16:02.802Z,0.13
2023-04-26T02:18:29.982Z,0.05
2023-04-26T02:20:56.653Z,0.18
2023-04-26T02:23:24.298Z,0.04
2023-04-26T02:25:51.250Z,0.20
2023-04-26T02:28:18.328Z,0.10
2023-04-26T02:30:44.946Z,-0.04
2023-04-26T02:33:12.098Z,0.22
2023-04-26T02:35:39.162Z,-0.31
2023-04-26T02:38:06.253Z,0.34
2023-04-26T02:40:32.964Z,0.02
2023-04-26T02:43:00.129Z,0.14
2023-04-26T02:45:26.910Z,0.50
2023-04-26T02:47:53.876Z,0.34
2023-04-26T02:50:20.995Z,0.54
2023-04-26T02:52:48.577Z,0.31
2023-04-26T02:55:16.217Z,-0.05
2023-04-26T02:57:43.208Z,-0.07
2023-04-26T03:00:14.444Z,0.40
2023-04-26T03:02:41.836Z,0.22
2023-04-26T03:05:09.880Z,0.54
2023-04-26T03:07:37.429Z,0.49
2023-04-26T03:10:06.183Z,0.32
2023-04-26T03:12:33.678Z,-0.17
2023-04-26T03:15:03.903Z,0.40
2023-04-26T03:17:31.285Z,0.33
2023-04-26T03:20:02.981Z,0.30
2023-04-26T03:22:31.944Z,0.12
2023-04-26T03:24:59.336Z,0.35
2023-04-26T03:27:30.385Z,0.26
2023-04-26T03:29:58.280Z,0.33
2023-04-26T03:32:26.177Z,0.27
2023-04-26T03:34:52.776Z,-0.08
2023-04-26T03:37:20.020Z,-0.40
2023-04-26T03:39:54.082Z,-0.26
2023-04-26T03:42:22.850Z,-0.32
2023-04-26T03:44:49.484Z,-0.48
2023-04-26T03:47:16.042Z,-0.42
2023-04-26T03:49:43.150Z,-0.89
2023-04-26T03:52:11.131Z,-0.64
2023-04-26T03:54:37.794Z,-0.40
2023-04-26T03:57:06.867Z,-0.71
2023-04-26T03:59:33.780Z,-0.55
2023-04-26T04:02:01.002Z,-0.38
2023-04-26T04:04:27.980Z,-0.02
2023-04-26T04:06:54.747Z,1.01
2023-04-26T04:09:21.662Z,1.82
2023-04-26T04:11:48.444Z,1.86
2023-04-26T04:14:14.990Z,1.79
2023-04-26T04:16:41.622Z,1.14
2023-04-26T04:19:09.938Z,1.25
2023-04-26T04:21:37.787Z,0.68
2023-04-26T04:24:05.981Z,0.62
2023-04-26T04:26:32.572Z,0.78
2023-04-26T04:29:09.302Z,0.51
2023-04-26T04:31:41.308Z,0.34
2023-04-26T04:34:09.318Z,0.42
2023-04-26T04:36:39.313Z,-0.19
2023-04-26T04:39:12.534Z,0.23
2023-04-26T04:41:40.713Z,0.17
2023-04-26T04:44:07.614Z,0.31
2023-04-26T04:46:38.678Z,0.21
2023-04-26T04:49:05.266Z,0.24
2023-04-26T04:51:31.801Z,0.51
2023-04-26T04:53:58.615Z,0.45
2023-04-26T04:56:26.167Z,0.55
2023-04-26T04:58:53.924Z,-0.13
2023-04-26T05:01:22.081Z,0.50
2023-04-26T05:03:55.639Z,0.65
2023-04-26T05:06:23.421Z,0.79
2023-04-26T05:08:50.189Z,-0.54
2023-04-26T05:11:18.237Z,0.23
2023-04-26T05:13:45.223Z,0.97
2023-04-26T05:16:14.875Z,1.05
2023-04-26T05:18:42.315Z,1.10
2023-04-26T05:21:09.787Z,1.34
2023-04-26T05:23:36.358Z,1.61
2023-04-26T05:26:07.500Z,1.62
2023-04-26T05:28:55.512Z,2.11
2023-04-26T05:31:40.975Z,2.33
2023-04-26T05:34:21.336Z,2.88
2023-04-26T05:36:51.807Z,3.22
2023-04-26T05:39:21.309Z,3.57
2023-04-26T05:41:47.876Z,3.97
2023-04-26T05:44:15.157Z,4.53
2023-04-26T05:46:41.715Z,4.70
2023-04-26T05:49:09.862Z,4.92
2023-04-26T05:51:36.478Z,5.25
2023-04-26T05:54:03.818Z,6.00
2023-04-26T05:56:31.011Z,6.33
2023-04-26T05:58:58.454Z,6.67
2023-04-26T06:01:26.661Z,6.92
2023-04-26T06:03:57.024Z,7.21
2023-04-26T06:06:28.418Z,7.57
2023-04-26T06:08:55.662Z,7.66
2023-04-26T06:11:23.459Z,7.66
2023-04-26T06:13:50.003Z,7.87
2023-04-26T06:16:17.514Z,8.08
2023-04-26T06:18:44.289Z,8.10
2023-04-26T06:21:13.952Z,8.39
2023-04-26T06:23:40.695Z,7.89
2023-04-26T06:26:07.449Z,7.76
2023-04-26T06:28:35.513Z,8.22
2023-04-26T06:31:02.799Z,8.36
2023-04-26T06:33:30.912Z,8.48
2023-04-26T06:35:58.364Z,8.51
2023-04-26T06:38:25.171Z,8.96
2023-04-26T06:40:51.852Z,8.88
2023-04-26T06:43:19.851Z,9.17
2023-04-26T06:46:07.048Z,9.58
2023-04-26T06:48:33.764Z,10.06
2023-04-26T06:51:09.514Z,10.32
2023-04-26T06:53:36.888Z,10.60
2023-04-26T06:56:04.000Z,10.06
2023-04-26T06:58:31.124Z,10.09
2023-04-26T07:00:59.418Z,9.62
2023-04-26T07:03:26.208Z,9.85
2023-04-26T07:05:54.801Z,10.02
2023-04-26T07:08:21.304Z,10.21
2023-04-26T07:10:48.188Z,10.45
2023-04-26T07:13:14.656Z,9.88
2023-04-26T07:15:42.227Z,9.88
2023-04-26T07:18:09.559Z,10.37
2023-04-26T07:20:36.506Z,10.08
2023-04-26T07:23:03.136Z,9.53
2023-04-26T07:25:29.800Z,9.63
2023-04-26T07:27:56.358Z,9.80
2023-04-26T07:30:23.624Z,9.56
2023-04-26T07:32:50.276Z,9.12
2023-04-26T07:35:17.017Z,9.40
2023-04-26T07:37:44.501Z,9.39
2023-04-26T07:40:12.158Z,9.98
2023-04-26T07:42:38.655Z,10.58
2023-04-26T07:45:16.385Z,10.44
2023-04-26T07:47:43.261Z,10.25
2023-04-26T07:50:10.820Z,9.91
2023-04-26T07:52:39.407Z,10.00
2023-04-26T07:55:06.838Z,9.65
2023-04-26T07:57:34.656Z,9.71
2023-04-26T08:00:01.390Z,10.81
2023-04-26T08:02:43.370Z,11.14
2023-04-26T08:05:11.180Z,11.62
2023-04-26T08:07:38.028Z,12.04
2023-04-26T08:10:05.178Z,12.72
2023-04-26T08:12:33.762Z,13.47
2023-04-26T08:15:01.605Z,13.52
2023-04-26T08:17:28.112Z,13.30
2023-04-26T08:19:54.692Z,12.47
2023-04-26T08:22:21.296Z,11.93
2023-04-26T08:24:52.681Z,12.18
2023-04-26T08:27:19.502Z,12.08
2023-04-26T08:29:46.461Z,13.02
2023-04-26T08:32:13.234Z,13.68
2023-04-26T08:34:40.450Z,14.10
2023-04-26T08:37:07.974Z,14.30
2023-04-26T08:39:34.529Z,14.66
2023-04-26T08:42:14.644Z,14.96
2023-04-26T08:44:43.438Z,14.87
2023-04-26T08:47:26.017Z,14.55
2023-04-26T08:49:59.543Z,14.16
2023-04-26T08:52:31.151Z,14.50
2023-04-26T08:54:59.790Z,14.87
2023-04-26T08:57:27.576Z,14.86
2023-04-26T08:59:58.037Z,15.50
2023-04-26T09:02:25.098Z,14.77
2023-04-26T09:04:52.527Z,14.47
2023-04-26T09:07:30.830Z,14.49
2023-04-26T09:09:59.190Z,14.51
2023-04-26T09:12:26.258Z,14.14
2023-04-26T09:14:53.220Z,14.26
2023-04-26T09:17:27.871Z,14.06
2023-04-26T09:19:55.006Z,13.89
2023-04-26T09:22:35.951Z,13.71
2023-04-26T09:25:07.356Z,13.56
2023-04-26T09:27:39.240Z,13.17
2023-04-26T09:30:20.725Z,12.38
2023-04-26T09:33:06.115Z,11.81
2023-04-26T09:35:40.640Z,11.70
2023-04-26T09:38:13.823Z,10.76
2023-04-26T09:40:48.874Z,10.74
2023-04-26T09:43:19.508Z,11.20
2023-04-26T09:45:51.939Z,11.30
2023-04-26T09:48:34.978Z,10.11
2023-04-26T09:51:04.473Z,10.12
2023-04-26T09:53:37.286Z,9.67
2023-04-26T09:56:19.022Z,9.31
2023-04-26T09:59:05.856Z,9.72
2023-04-26T10:01:33.516Z,10.05
2023-04-26T10:04:02.345Z,10.79
2023-04-26T10:06:29.521Z,11.11
2023-04-26T10:08:57.120Z,11.62
2023-04-26T10:11:26.266Z,11.35
2023-04-26T10:13:52.926Z,11.10
2023-04-26T10:16:21.781Z,10.96
2023-04-26T10:18:49.701Z,10.67
2023-04-26T10:21:31.991Z,11.36
2023-04-26T10:24:00.443Z,11.26
2023-04-26T10:26:53.670Z,11.39
2023-04-26T10:29:21.870Z,11.24
2023-04-26T10:32:07.003Z,11.26
2023-04-26T10:34:35.317Z,11.36
2023-04-26T10:37:16.890Z,11.73
2023-04-26T10:39:46.225Z,11.36
2023-04-26T10:42:25.455Z,11.45
2023-04-26T10:44:53.506Z,10.92
2023-04-26T10:47:32.412Z,11.23
2023-04-26T10:50:11.836Z,10.86
2023-04-26T10:53:04.802Z,10.94
2023-04-26T10:55:43.794Z,11.19
2023-04-26T10:58:30.748Z,11.23
2023-04-26T11:01:13.776Z,11.27
2023-04-26T11:04:01.693Z,12.05
2023-04-26T11:06:51.035Z,12.37
2023-04-26T11:09:40.705Z,12.71
2023-04-26T11:12:12.667Z,12.87
2023-04-26T11:14:41.747Z,12.96
2023-04-26T11:17:12.345Z,13.16
2023-04-26T11:19:38.905Z,12.95
2023-04-26T11:22:08.136Z,13.14
2023-04-26T11:24:41.708Z,13.01
2023-04-26T11:27:09.517Z,13.46
2023-04-26T11:29:36.584Z,13.87
2023-04-26T11:32:03.912Z,13.73
2023-04-26T11:34:41.659Z,13.94
2023-04-26T11:37:08.593Z,14.02
2023-04-26T11:39:36.147Z,14.33
2023-04-26T11:42:11.752Z,14.53
2023-04-26T11:44:42.206Z,14.67
2023-04-26T11:47:09.527Z,14.63
2023-04-26T11:49:39.260Z,13.87
2023-04-26T11:52:06.696Z,13.15
2023-04-26T11:54:35.851Z,12.89
2023-04-26T11:57:16.156Z,11.85
2023-04-26T11:59:43.952Z,11.33
2023-04-26T12:02:11.029Z,11.81
2023-04-26T12:04:39.912Z,11.81
2023-04-26T12:07:07.937Z,11.97
2023-04-26T12:09:34.625Z,11.52
2023-04-26T12:12:02.287Z,11.82
2023-04-26T12:14:33.083Z,12.13
2023-04-26T12:17:04.667Z,12.33
2023-04-26T12:19:36.591Z,12.69
2023-04-26T12:22:04.186Z,12.73
2023-04-26T12:24:37.133Z,12.86
2023-04-26T12:27:06.153Z,12.96
2023-04-26T12:29:33.537Z,12.76
2023-04-26T12:32:01.396Z,12.65
2023-04-26T12:34:28.086Z,12.53
2023-04-26T12:36:54.775Z,12.77
2023-04-26T12:39:21.985Z,11.96
2023-04-26T12:41:49.376Z,12.02
2023-04-26T12:44:16.486Z,11.81
2023-04-26T12:46:43.675Z,11.20
2023-04-26T12:49:10.540Z,10.94
2023-04-26T12:51:37.377Z,10.91
2023-04-26T12:54:04.019Z,11.51
2023-04-26T12:56:30.818Z,11.70
2023-04-26T12:58:57.853Z,11.28
2023-04-26T13:01:24.782Z,11.56
2023-04-26T13:03:51.820Z,11.61
2023-04-26T13:06:18.473Z,11.52
2023-04-26T13:08:51.314Z,11.14
2023-04-26T13:11:18.104Z,11.23
2023-04-26T13:13:45.147Z,11.22
2023-04-26T13:16:12.986Z,11.46
2023-04-26T13:18:43.340Z,10.22
2023-04-26T13:21:09.915Z,10.88
2023-04-26T13:23:36.515Z,11.01
2023-04-26T13:26:03.841Z,10.71
2023-04-26T13:28:30.440Z,10.32
2023-04-26T13:30:57.365Z,10.97
2023-04-26T13:33:23.997Z,10.84
2023-04-26T13:35:50.565Z,10.41
2023-04-26T13:38:17.499Z,11.06
2023-04-26T13:40:44.816Z,11.03
2023-04-26T13:43:11.431Z,10.64
2023-04-26T13:45:38.734Z,10.17
2023-04-26T13:48:05.561Z,9.96
2023-04-26T13:50:32.126Z,10.74
2023-04-26T13:52:59.649Z,10.78
2023-04-26T13:55:27.528Z,10.83
2023-04-26T13:57:54.059Z,10.95
2023-04-26T14:00:21.056Z,11.05
2023-04-26T14:02:48.552Z,11.47
2023-04-26T14:05:15.675Z,11.51
2023-04-26T14:07:42.503Z,11.69
2023-04-26T14:10:09.553Z,11.86
2023-04-26T14:12:36.072Z,11.93
2023-04-26T14:15:04.349Z,11.32
2023-04-26T14:17:32.567Z,11.45
2023-04-26T14:20:00.157Z,11.82
2023-04-26T14:22:27.256Z,11.72
2023-04-26T14:24:54.427Z,11.94
2023-04-26T14:27:21.291Z,11.59
2023-04-26T14:29:47.889Z,11.66
2023-04-26T14:32:15.016Z,11.63
2023-04-26T14:34:42.585Z,11.59
2023-04-26T14:37:09.419Z,12.00
2023-04-26T14:39:37.347Z,11.64
2023-04-26T14:42:04.487Z,11.77
2023-04-26T14:44:30.983Z,11.50
2023-04-26T14:46:57.902Z,11.88
2023-04-26T14:49:24.636Z,12.16
2023-04-26T14:51:53.525Z,11.95
2023-04-26T14:54:21.126Z,11.59
2023-04-26T14:56:48.675Z,11.02
2023-04-26T14:59:15.753Z,10.14
2023-04-26T15:01:43.472Z,10.73
2023-04-26T15:04:10.192Z,9.92
2023-04-26T15:06:37.273Z,10.10
2023-04-26T15:09:04.662Z,10.39
2023-04-26T15:11:31.221Z,10.27
2023-04-26T15:13:57.697Z,10.76
2023-04-26T15:16:24.325Z,10.79
2023-04-26T15:18:51.016Z,10.93
2023-04-26T15:21:18.401Z,11.07
2023-04-26T15:23:45.136Z,10.46
2023-04-26T15:26:12.127Z,11.03
2023-04-26T15:28:38.989Z,10.81
2023-04-26T15:31:08.677Z,11.38
2023-04-26T15:33:35.815Z,11.19
2023-04-26T15:36:02.821Z,10.99
2023-04-26T15:38:29.350Z,10.95
2023-04-26T15:40:56.315Z,11.21
2023-04-26T15:43:23.061Z,10.64
2023-04-26T15:45:50.081Z,10.56
2023-04-26T15:48:16.778Z,10.52
2023-04-26T15:50:43.244Z,10.61
2023-04-26T15:53:10.423Z,10.81
2023-04-26T15:55:40.270Z,10.38
2023-04-26T15:58:07.161Z,11.03
2023-04-26T16:00:36.699Z,10.01
2023-04-26T16:03:03.630Z,11.16
2023-04-26T16:05:32.338Z,11.05
2023-04-26T16:07:59.725Z,10.78
2023-04-26T16:10:27.461Z,10.73
2023-04-26T16:12:53.997Z,10.55
2023-04-26T16:15:21.106Z,10.61
2023-04-26T16:17:47.915Z,10.45
2023-04-26T16:20:15.567Z,10.41
2023-04-26T16:22:45.092Z,10.25
2023-04-26T16:25:12.100Z,10.81
2023-04-26T16:27:39.180Z,10.63
2023-04-26T16:30:08.011Z,10.63
2023-04-26T16:32:34.608Z,10.70
2023-04-26T16:35:01.514Z,10.95
2023-04-26T16:37:28.558Z,11.03
2023-04-26T16:39:55.846Z,10.98
2023-04-26T16:42:24.528Z,10.92
2023-04-26T16:44:53.428Z,11.06
2023-04-26T16:47:19.982Z,10.56
2023-04-26T16:49:46.735Z,10.80
2023-04-26T16:52:18.411Z,10.66
2023-04-26T16:54:50.944Z,10.94
2023-04-26T16:57:18.194Z,10.72
2023-04-26T16:59:44.779Z,10.39
2023-04-26T17:02:13.085Z,10.81
2023-04-26T17:04:39.911Z,10.39
2023-04-26T17:07:06.947Z,10.68
2023-04-26T17:09:33.960Z,10.19
2023-04-26T17:12:00.781Z,10.61
2023-04-26T17:14:27.829Z,10.43
2023-04-26T17:16:54.604Z,10.62
2023-04-26T17:19:21.911Z,10.56
2023-04-26T17:21:52.400Z,10.44
2023-04-26T17:24:19.282Z,10.53
2023-04-26T17:26:46.744Z,10.66
2023-04-26T17:29:14.032Z,9.78
2023-04-26T17:31:40.624Z,10.17
2023-04-26T17:34:08.408Z,10.71
2023-04-26T17:36:35.642Z,10.59
2023-04-26T17:39:03.467Z,10.61
2023-04-26T17:41:30.088Z,10.56
2023-04-26T17:43:56.554Z,10.51
2023-04-26T17:46:23.437Z,10.56
2023-04-26T17:48:50.167Z,10.75
2023-04-26T17:51:16.948Z,10.48
2023-04-26T17:53:43.478Z,10.46
2023-04-26T17:56:10.968Z,10.48
2023-04-26T17:58:37.484Z,10.45
2023-04-26T18:01:04.688Z,10.10
2023-04-26T18:03:31.804Z,10.01
2023-04-26T18:05:58.822Z,9.91
2023-04-26T18:08:26.065Z,9.85
2023-04-26T18:10:53.953Z,10.16
2023-04-26T18:13:21.208Z,10.01
2023-04-26T18:15:48.512Z,9.91
2023-04-26T18:18:16.276Z,9.79
2023-04-26T18:20:42.865Z,9.85
2023-04-26T18:23:09.613Z,9.70
2023-04-26T18:25:36.559Z,9.72
2023-04-26T18:28:04.723Z,9.52
2023-04-26T18:30:32.648Z,9.57
2023-04-26T18:32:59.684Z,9.62
2023-04-26T18:35:27.356Z,9.76
2023-04-26T18:37:54.492Z,9.88
2023-04-26T18:40:21.560Z,9.52
2023-04-26T18:42:48.064Z,9.52
2023-04-26T18:45:15.716Z,9.66
2023-04-26T18:47:42.710Z,9.50
2023-04-26T18:50:11.435Z,9.50
2023-04-26T18:52:39.661Z,9.43
2023-04-26T18:55:09.267Z,9.51
2023-04-26T18:57:35.972Z,9.38
2023-04-26T19:00:05.311Z,9.31
2023-04-26T19:02:31.965Z,8.83
2023-04-26T19:04:59.612Z,9.25
2023-04-26T19:07:28.388Z,9.04
2023-04-26T19:10:00.855Z,8.91
2023-04-26T19:12:27.897Z,8.91
2023-04-26T19:14:55.158Z,8.96
2023-04-26T19:17:22.450Z,9.05
2023-04-26T19:19:52.717Z,8.95
2023-04-26T19:22:19.722Z,8.73
2023-04-26T19:24:50.172Z,8.83
2023-04-26T19:27:17.934Z,8.76
2023-04-26T19:29:45.137Z,8.47
2023-04-26T19:32:12.417Z,8.48
2023-04-26T19:34:40.695Z,8.40
2023-04-26T19:37:07.278Z,8.45
2023-04-26T19:39:33.796Z,7.89
2023-04-26T19:42:01.727Z,7.74
2023-04-26T19:44:35.980Z,8.24
2023-04-26T19:47:03.100Z,8.00
2023-04-26T19:49:29.662Z,7.85
2023-04-26T19:51:56.503Z,7.81
2023-04-26T19:54:24.335Z,7.70
2023-04-26T19:56:51.121Z,7.58
2023-04-26T19:59:17.909Z,7.63
2023-04-26T20:01:44.509Z,7.39
2023-04-26T20:04:11.163Z,7.57
2023-04-26T20:06:39.149Z,7.12
2023-04-26T20:09:10.728Z,7.19
2023-04-26T20:11:37.591Z,7.36
2023-04-26T20:14:04.388Z,7.06
2023-04-26T20:16:31.329Z,7.04
2023-04-26T20:18:59.927Z,6.33
2023-04-26T20:21:28.973Z,6.78
2023-04-26T20:23:59.940Z,6.65
2023-04-26T20:26:26.768Z,6.73
2023-04-26T20:28:53.999Z,6.81
2023-04-26T20:31:20.787Z,5.96
2023-04-26T20:33:47.599Z,6.18
2023-04-26T20:36:14.505Z,6.24
2023-04-26T20:38:41.096Z,6.40
2023-04-26T20:41:07.601Z,6.03
2023-04-26T20:43:35.932Z,6.28
2023-04-26T20:46:03.394Z,6.23
2023-04-26T20:48:30.190Z,5.92
2023-04-26T20:50:58.720Z,6.04
2023-04-26T20:53:25.994Z,6.04
2023-04-26T20:55:53.740Z,5.87
2023-04-26T20:58:20.310Z,5.86
2023-04-26T21:00:55.610Z,5.61
2023-04-26T21:03:22.668Z,5.23
2023-04-26T21:05:50.084Z,5.41
2023-04-26T21:08:16.897Z,5.50
2023-04-26T21:10:43.679Z,3.86
2023-04-26T21:13:10.216Z,5.19
2023-04-26T21:15:37.038Z,5.11
2023-04-26T21:18:05.201Z,5.44
2023-04-26T21:20:33.463Z,4.84
2023-04-26T21:22:59.967Z,5.34
2023-04-26T21:25:27.914Z,5.45
2023-04-26T21:27:55.444Z,5.46
2023-04-26T21:30:22.270Z,5.49
2023-04-26T21:32:50.688Z,5.56
2023-04-26T21:44:48.958Z,5.50
2023-04-26T21:47:16.651Z,4.92
2023-04-26T21:49:43.383Z,5.37
2023-04-26T21:52:10.243Z,5.21
2023-04-26T21:54:36.873Z,4.54
2023-04-26T21:57:07.120Z,4.86
2023-04-26T21:59:33.885Z,4.24
2023-04-26T22:02:01.158Z,4.52
2023-04-26T22:04:28.416Z,4.46
2023-04-26T22:06:55.278Z,4.28
2023-04-26T22:09:26.307Z,3.95
2023-04-26T22:11:53.150Z,3.65
2023-04-26T22:14:19.964Z,3.97
2023-04-26T22:16:47.106Z,3.36
2023-04-26T22:19:14.917Z,4.37
2023-04-26T22:21:41.966Z,4.50
2023-04-26T22:24:08.951Z,4.39
2023-04-26T22:26:36.057Z,4.60
2023-04-26T22:29:04.053Z,4.44
2023-04-26T22:31:30.999Z,4.41
2023-04-26T22:33:57.610Z,4.55
2023-04-26T22:36:25.611Z,4.49
2023-04-26T22:38:52.556Z,4.36
2023-04-26T22:41:19.112Z,4.40
2023-04-26T22:43:46.230Z,4.40
2023-04-26T22:46:13.193Z,4.34
2023-04-26T22:48:40.028Z,4.13
2023-04-26T22:51:06.837Z,3.11
2023-04-26T22:53:34.412Z,4.34
2023-04-26T22:56:03.377Z,4.22
2023-04-26T22:58:30.314Z,4.33
2023-04-26T23:00:57.128Z,4.27
2023-04-26T23:03:24.225Z,3.83
2023-04-26T23:05:51.843Z,3.91
2023-04-26T23:08:21.746Z,4.06
2023-04-26T23:10:48.458Z,3.73
2023-04-26T23:13:16.191Z,3.11
2023-04-26T23:15:42.624Z,3.79
2023-04-26T23:18:10.506Z,3.60
2023-04-26T23:20:37.525Z,3.26
2023-04-26T23:23:05.215Z,3.19
2023-04-26T23:25:31.714Z,3.29
2023-04-26T23:27:58.311Z,3.39
2023-04-26T23:30:25.051Z,3.57
2023-04-26T23:32:51.937Z,3.75
2023-04-26T23:35:18.434Z,3.63
2023-04-26T23:37:45.981Z,3.49
2023-04-26T23:40:12.912Z,3.43
2023-04-26T23:42:39.547Z,3.40
2023-04-26T23:45:07.814Z,3.52
2023-04-26T23:47:34.814Z,3.40
2023-04-26T23:50:01.889Z,3.53
2023-04-26T23:52:28.850Z,3.42
2023-04-26T23:54:55.643Z,3.36
2023-04-26T23:57:22.428Z,3.31
2023-04-26T23:59:49.342Z,3.22
